sensor_id;sensor_type;location;lat;lon;timestamp;temperature;humidity
20349;DHT22;10332;50.208;18.988;2024-02-04T00:00:31;8.50;1.00
20349;DHT22;10332;50.208;18.988;2024-02-04T00:03:19;8.50;1.00
20349;DHT22;10332;50.208;18.988;2024-02-04T00:05:47;8.50;1.00
20349;DHT22;10332;50.208;18.988;2024-02-04T00:08:14;8.50;1.00
20349;DHT22;10332;50.208;18.988;2024-02-04T00:10:44;8.40;1.00
20349;DHT22;10332;50.208;18.988;2024-02-04T00:13:12;8.40;1.00
20349;DHT22;10332;50.208;18.988;2024-02-04T00:15:39;8.30;1.00
20349;DHT22;10332;50.208;18.988;2024-02-04T00:18:06;8.30;1.00
20349;DHT22;10332;50.208;18.988;2024-02-04T00:20:34;8.30;1.00
20349;DHT22;10332;50.208;18.988;2024-02-04T00:23:01;8.30;1.00
20349;DHT22;10332;50.208;18.988;2024-02-04T00:25:28;8.30;1.00
20349;DHT22;10332;50.208;18.988;2024-02-04T00:27:56;8.30;1.00
20349;DHT22;10332;50.208;18.988;2024-02-04T00:30:24;8.30;1.00
20349;DHT22;10332;50.208;18.988;2024-02-04T00:32:51;8.30;1.00
20349;DHT22;10332;50.208;18.988;2024-02-04T00:35:19;8.20;1.00
20349;DHT22;10332;50.208;18.988;2024-02-04T00:37:46;8.20;1.00
20349;DHT22;10332;50.208;18.988;2024-02-04T00:40:14;8.20;1.00
20349;DHT22;10332;50.208;18.988;2024-02-04T00:42:41;8.20;1.00
20349;DHT22;10332;50.208;18.988;2024-02-04T00:45:09;8.20;1.00
20349;DHT22;10332;50.208;18.988;2024-02-04T00:47:36;8.20;1.00
20349;DHT22;10332;50.208;18.988;2024-02-04T00:50:04;8.20;1.00
20349;DHT22;10332;50.208;18.988;2024-02-04T00:52:32;8.20;1.00
20349;DHT22;10332;50.208;18.988;2024-02-04T00:54:59;8.30;1.00
20349;DHT22;10332;50.208;18.988;2024-02-04T00:57:26;8.30;1.00
20349;DHT22;10332;50.208;18.988;2024-02-04T00:59:54;8.30;1.00
20349;DHT22;10332;50.208;18.988;2024-02-04T01:02:21;8.30;1.00
20349;DHT22;10332;50.208;18.988;2024-02-04T01:04:48;8.30;1.00
20349;DHT22;10332;50.208;18.988;2024-02-04T01:07:17;8.30;1.00
20349;DHT22;10332;50.208;18.988;2024-02-04T01:09:45;8.30;1.00
20349;DHT22;10332;50.208;18.988;2024-02-04T01:12:12;8.30;1.00
20349;DHT22;10332;50.208;18.988;2024-02-04T01:14:39;8.30;1.00
20349;DHT22;10332;50.208;18.988;2024-02-04T01:17:07;8.30;1.00
20349;DHT22;10332;50.208;18.988;2024-02-04T01:19:34;8.30;1.00
20349;DHT22;10332;50.208;18.988;2024-02-04T01:22:02;8.30;1.00
20349;DHT22;10332;50.208;18.988;2024-02-04T01:24:30;8.30;1.00
20349;DHT22;10332;50.208;18.988;2024-02-04T01:26:58;8.30;1.00
20349;DHT22;10332;50.208;18.988;2024-02-04T01:29:25;8.30;1.00
20349;DHT22;10332;50.208;18.988;2024-02-04T01:31:53;8.30;1.00
20349;DHT22;10332;50.208;18.988;2024-02-04T01:34:21;8.30;1.00
20349;DHT22;10332;50.208;18.988;2024-02-04T01:36:48;8.30;1.00
20349;DHT22;10332;50.208;18.988;2024-02-04T01:39:15;8.20;1.00
20349;DHT22;10332;50.208;18.988;2024-02-04T01:41:43;8.20;1.00
20349;DHT22;10332;50.208;18.988;2024-02-04T01:44:13;8.20;1.00
20349;DHT22;10332;50.208;18.988;2024-02-04T01:46:40;8.20;1.00
20349;DHT22;10332;50.208;18.988;2024-02-04T01:49:08;8.20;1.00
20349;DHT22;10332;50.208;18.988;2024-02-04T01:51:35;8.20;1.00
20349;DHT22;10332;50.208;18.988;2024-02-04T01:54:04;8.20;1.00
20349;DHT22;10332;50.208;18.988;2024-02-04T01:56:32;8.20;1.00
20349;DHT22;10332;50.208;18.988;2024-02-04T01:58:59;8.20;1.00
20349;DHT22;10332;50.208;18.988;2024-02-04T02:01:27;8.20;1.00
20349;DHT22;10332;50.208;18.988;2024-02-04T02:03:55;8.20;1.00
20349;DHT22;10332;50.208;18.988;2024-02-04T02:06:23;8.20;1.00
20349;DHT22;10332;50.208;18.988;2024-02-04T02:08:51;8.20;1.00
20349;DHT22;10332;50.208;18.988;2024-02-04T02:11:30;8.20;1.00
20349;DHT22;10332;50.208;18.988;2024-02-04T02:14:01;8.20;1.00
20349;DHT22;10332;50.208;18.988;2024-02-04T02:16:32;8.20;1.00
20349;DHT22;10332;50.208;18.988;2024-02-04T02:19:25;8.20;1.00
20349;DHT22;10332;50.208;18.988;2024-02-04T02:22:23;8.30;1.00
20349;DHT22;10332;50.208;18.988;2024-02-04T02:24:52;8.30;1.00
20349;DHT22;10332;50.208;18.988;2024-02-04T02:27:21;8.20;1.00
20349;DHT22;10332;50.208;18.988;2024-02-04T02:29:48;8.30;1.00
20349;DHT22;10332;50.208;18.988;2024-02-04T02:32:16;8.30;1.00
20349;DHT22;10332;50.208;18.988;2024-02-04T02:34:43;8.30;1.50
20349;DHT22;10332;50.208;18.988;2024-02-04T02:37:33;8.30;2.60
20349;DHT22;10332;50.208;18.988;2024-02-04T02:40:10;8.30;1.00
20349;DHT22;10332;50.208;18.988;2024-02-04T02:42:43;8.20;1.00
20349;DHT22;10332;50.208;18.988;2024-02-04T02:45:11;8.20;1.00
20349;DHT22;10332;50.208;18.988;2024-02-04T02:47:41;8.10;1.00
20349;DHT22;10332;50.208;18.988;2024-02-04T02:50:08;8.10;1.00
20349;DHT22;10332;50.208;18.988;2024-02-04T02:52:36;8.00;1.00
20349;DHT22;10332;50.208;18.988;2024-02-04T02:55:04;8.00;1.00
20349;DHT22;10332;50.208;18.988;2024-02-04T02:57:32;7.90;1.00
20349;DHT22;10332;50.208;18.988;2024-02-04T02:59:59;7.90;1.00
20349;DHT22;10332;50.208;18.988;2024-02-04T03:02:26;7.90;1.00
20349;DHT22;10332;50.208;18.988;2024-02-04T03:04:54;7.80;1.00
20349;DHT22;10332;50.208;18.988;2024-02-04T03:07:21;7.80;1.00
20349;DHT22;10332;50.208;18.988;2024-02-04T03:09:48;7.80;1.00
20349;DHT22;10332;50.208;18.988;2024-02-04T03:12:16;7.80;1.00
20349;DHT22;10332;50.208;18.988;2024-02-04T03:14:43;7.80;1.00
20349;DHT22;10332;50.208;18.988;2024-02-04T03:17:10;7.80;1.00
20349;DHT22;10332;50.208;18.988;2024-02-04T03:19:38;7.80;1.00
20349;DHT22;10332;50.208;18.988;2024-02-04T03:22:06;7.80;1.00
20349;DHT22;10332;50.208;18.988;2024-02-04T03:24:33;7.80;1.00
20349;DHT22;10332;50.208;18.988;2024-02-04T03:27:00;7.80;1.00
20349;DHT22;10332;50.208;18.988;2024-02-04T03:29:28;7.80;1.00
20349;DHT22;10332;50.208;18.988;2024-02-04T03:31:58;7.80;1.00
20349;DHT22;10332;50.208;18.988;2024-02-04T03:34:25;7.80;1.00
20349;DHT22;10332;50.208;18.988;2024-02-04T03:36:53;7.80;1.00
20349;DHT22;10332;50.208;18.988;2024-02-04T03:39:20;7.80;1.00
20349;DHT22;10332;50.208;18.988;2024-02-04T03:41:47;7.80;1.00
20349;DHT22;10332;50.208;18.988;2024-02-04T03:44:15;7.80;1.00
20349;DHT22;10332;50.208;18.988;2024-02-04T03:46:42;7.70;1.00
20349;DHT22;10332;50.208;18.988;2024-02-04T03:49:10;7.70;1.00
20349;DHT22;10332;50.208;18.988;2024-02-04T03:51:38;7.70;1.00
20349;DHT22;10332;50.208;18.988;2024-02-04T03:54:05;7.70;1.00
20349;DHT22;10332;50.208;18.988;2024-02-04T03:56:32;7.70;1.00
20349;DHT22;10332;50.208;18.988;2024-02-04T03:58:59;7.70;1.00
20349;DHT22;10332;50.208;18.988;2024-02-04T04:01:27;7.80;1.00
20349;DHT22;10332;50.208;18.988;2024-02-04T04:03:54;7.80;1.00
20349;DHT22;10332;50.208;18.988;2024-02-04T04:06:22;7.80;1.00
20349;DHT22;10332;50.208;18.988;2024-02-04T04:08:49;7.80;1.00
20349;DHT22;10332;50.208;18.988;2024-02-04T04:11:17;7.80;1.00
20349;DHT22;10332;50.208;18.988;2024-02-04T04:13:44;7.80;1.00
20349;DHT22;10332;50.208;18.988;2024-02-04T04:16:11;7.80;1.00
20349;DHT22;10332;50.208;18.988;2024-02-04T04:18:39;7.80;1.00
20349;DHT22;10332;50.208;18.988;2024-02-04T04:21:06;7.80;1.00
20349;DHT22;10332;50.208;18.988;2024-02-04T04:23:33;7.80;1.00
20349;DHT22;10332;50.208;18.988;2024-02-04T04:26:01;7.80;1.00
20349;DHT22;10332;50.208;18.988;2024-02-04T04:28:28;7.80;1.60
20349;DHT22;10332;50.208;18.988;2024-02-04T04:30:55;7.80;6.00
20349;DHT22;10332;50.208;18.988;2024-02-04T04:33:23;7.80;12.40
20349;DHT22;10332;50.208;18.988;2024-02-04T04:35:50;7.80;15.80
20349;DHT22;10332;50.208;18.988;2024-02-04T04:38:18;7.80;21.90
20349;DHT22;10332;50.208;18.988;2024-02-04T04:40:45;7.80;30.10
20349;DHT22;10332;50.208;18.988;2024-02-04T04:43:12;7.80;37.70
20349;DHT22;10332;50.208;18.988;2024-02-04T04:45:40;7.80;43.90
20349;DHT22;10332;50.208;18.988;2024-02-04T04:48:07;7.80;47.10
20349;DHT22;10332;50.208;18.988;2024-02-04T04:50:36;7.80;53.40
20349;DHT22;10332;50.208;18.988;2024-02-04T04:53:03;7.80;58.40
20349;DHT22;10332;50.208;18.988;2024-02-04T04:55:31;7.80;68.20
20349;DHT22;10332;50.208;18.988;2024-02-04T04:57:58;7.80;73.80
20349;DHT22;10332;50.208;18.988;2024-02-04T05:00:26;7.80;79.20
20349;DHT22;10332;50.208;18.988;2024-02-04T05:02:53;7.90;66.30
20349;DHT22;10332;50.208;18.988;2024-02-04T05:05:21;7.80;56.60
20349;DHT22;10332;50.208;18.988;2024-02-04T05:07:48;7.80;57.20
20349;DHT22;10332;50.208;18.988;2024-02-04T05:10:16;7.80;58.40
20349;DHT22;10332;50.208;18.988;2024-02-04T05:12:43;7.80;66.50
20349;DHT22;10332;50.208;18.988;2024-02-04T05:15:11;7.70;79.20
20349;DHT22;10332;50.208;18.988;2024-02-04T05:17:38;7.70;87.30
20349;DHT22;10332;50.208;18.988;2024-02-04T05:20:06;7.60;94.30
20349;DHT22;10332;50.208;18.988;2024-02-04T05:22:34;7.60;99.70
20349;DHT22;10332;50.208;18.988;2024-02-04T05:25:02;7.60;99.90
20349;DHT22;10332;50.208;18.988;2024-02-04T05:27:32;7.60;99.90
20349;DHT22;10332;50.208;18.988;2024-02-04T05:29:59;7.60;99.90
20349;DHT22;10332;50.208;18.988;2024-02-04T05:32:27;7.60;99.90
20349;DHT22;10332;50.208;18.988;2024-02-04T05:34:54;7.60;99.90
20349;DHT22;10332;50.208;18.988;2024-02-04T05:37:21;7.50;99.90
20349;DHT22;10332;50.208;18.988;2024-02-04T05:39:49;7.50;98.60
20349;DHT22;10332;50.208;18.988;2024-02-04T05:42:16;7.50;81.50
20349;DHT22;10332;50.208;18.988;2024-02-04T05:44:44;7.40;54.00
20349;DHT22;10332;50.208;18.988;2024-02-04T05:47:11;7.40;43.80
20349;DHT22;10332;50.208;18.988;2024-02-04T05:49:39;7.40;42.20
20349;DHT22;10332;50.208;18.988;2024-02-04T05:52:07;7.30;46.30
20349;DHT22;10332;50.208;18.988;2024-02-04T05:54:38;7.30;50.70
20349;DHT22;10332;50.208;18.988;2024-02-04T05:57:06;7.20;51.80
20349;DHT22;10332;50.208;18.988;2024-02-04T05:59:34;7.20;44.10
20349;DHT22;10332;50.208;18.988;2024-02-04T06:02:01;7.20;28.10
20349;DHT22;10332;50.208;18.988;2024-02-04T06:04:29;7.10;7.00
20349;DHT22;10332;50.208;18.988;2024-02-04T06:06:56;7.20;1.00
20349;DHT22;10332;50.208;18.988;2024-02-04T06:09:33;7.10;1.00
20349;DHT22;10332;50.208;18.988;2024-02-04T06:12:00;7.20;1.00
20349;DHT22;10332;50.208;18.988;2024-02-04T06:14:28;7.10;1.00
20349;DHT22;10332;50.208;18.988;2024-02-04T06:16:55;7.10;1.00
20349;DHT22;10332;50.208;18.988;2024-02-04T06:19:22;7.10;1.00
20349;DHT22;10332;50.208;18.988;2024-02-04T06:21:49;7.10;1.00
20349;DHT22;10332;50.208;18.988;2024-02-04T06:24:17;7.10;99.90
20349;DHT22;10332;50.208;18.988;2024-02-04T06:26:46;7.10;99.90
20349;DHT22;10332;50.208;18.988;2024-02-04T06:29:14;7.00;99.90
20349;DHT22;10332;50.208;18.988;2024-02-04T06:31:44;7.00;99.90
20349;DHT22;10332;50.208;18.988;2024-02-04T06:34:12;7.00;99.90
20349;DHT22;10332;50.208;18.988;2024-02-04T06:36:43;7.10;99.90
20349;DHT22;10332;50.208;18.988;2024-02-04T06:39:14;7.10;1.00
20349;DHT22;10332;50.208;18.988;2024-02-04T06:41:41;7.10;1.00
20349;DHT22;10332;50.208;18.988;2024-02-04T06:44:10;7.10;1.00
20349;DHT22;10332;50.208;18.988;2024-02-04T06:46:37;7.20;1.00
20349;DHT22;10332;50.208;18.988;2024-02-04T06:49:05;7.20;1.00
20349;DHT22;10332;50.208;18.988;2024-02-04T06:51:32;7.20;1.00
20349;DHT22;10332;50.208;18.988;2024-02-04T06:54:00;7.20;1.00
20349;DHT22;10332;50.208;18.988;2024-02-04T06:56:28;7.30;1.00
20349;DHT22;10332;50.208;18.988;2024-02-04T06:58:55;7.30;1.00
20349;DHT22;10332;50.208;18.988;2024-02-04T07:01:22;7.30;1.00
20349;DHT22;10332;50.208;18.988;2024-02-04T07:03:50;7.40;99.90
20349;DHT22;10332;50.208;18.988;2024-02-04T07:06:17;7.40;99.90
20349;DHT22;10332;50.208;18.988;2024-02-04T07:08:45;7.40;99.90
20349;DHT22;10332;50.208;18.988;2024-02-04T07:11:12;7.50;1.00
20349;DHT22;10332;50.208;18.988;2024-02-04T07:13:40;7.40;1.00
20349;DHT22;10332;50.208;18.988;2024-02-04T07:16:07;7.50;1.00
20349;DHT22;10332;50.208;18.988;2024-02-04T07:18:34;7.50;1.00
20349;DHT22;10332;50.208;18.988;2024-02-04T07:21:02;7.50;1.00
20349;DHT22;10332;50.208;18.988;2024-02-04T07:23:30;7.60;1.00
20349;DHT22;10332;50.208;18.988;2024-02-04T07:25:57;7.70;1.00
20349;DHT22;10332;50.208;18.988;2024-02-04T07:28:25;7.70;1.00
20349;DHT22;10332;50.208;18.988;2024-02-04T07:30:52;7.70;1.00
20349;DHT22;10332;50.208;18.988;2024-02-04T07:33:19;7.70;1.00
20349;DHT22;10332;50.208;18.988;2024-02-04T07:35:47;7.80;99.90
20349;DHT22;10332;50.208;18.988;2024-02-04T07:38:14;7.80;1.00
20349;DHT22;10332;50.208;18.988;2024-02-04T07:40:41;7.80;1.00
20349;DHT22;10332;50.208;18.988;2024-02-04T07:43:09;7.80;1.00
20349;DHT22;10332;50.208;18.988;2024-02-04T07:45:36;7.80;1.00
20349;DHT22;10332;50.208;18.988;2024-02-04T07:48:04;7.80;1.00
20349;DHT22;10332;50.208;18.988;2024-02-04T07:50:31;7.80;99.90
20349;DHT22;10332;50.208;18.988;2024-02-04T07:52:59;7.70;47.60
20349;DHT22;10332;50.208;18.988;2024-02-04T07:55:26;7.60;1.00
20349;DHT22;10332;50.208;18.988;2024-02-04T07:57:53;7.60;1.00
20349;DHT22;10332;50.208;18.988;2024-02-04T08:00:21;7.60;1.00
20349;DHT22;10332;50.208;18.988;2024-02-04T08:02:48;7.60;1.00
20349;DHT22;10332;50.208;18.988;2024-02-04T08:05:15;7.80;1.00
20349;DHT22;10332;50.208;18.988;2024-02-04T08:07:43;8.20;1.00
20349;DHT22;10332;50.208;18.988;2024-02-04T08:10:11;8.50;99.90
20349;DHT22;10332;50.208;18.988;2024-02-04T08:12:38;8.80;99.90
20349;DHT22;10332;50.208;18.988;2024-02-04T08:15:06;9.00;1.00
20349;DHT22;10332;50.208;18.988;2024-02-04T08:17:34;9.10;99.90
20349;DHT22;10332;50.208;18.988;2024-02-04T08:20:01;9.30;1.00
20349;DHT22;10332;50.208;18.988;2024-02-04T08:22:31;9.40;99.90
20349;DHT22;10332;50.208;18.988;2024-02-04T08:24:58;9.50;1.00
20349;DHT22;10332;50.208;18.988;2024-02-04T08:27:26;9.50;1.00
20349;DHT22;10332;50.208;18.988;2024-02-04T08:29:53;9.70;1.00
20349;DHT22;10332;50.208;18.988;2024-02-04T08:32:20;10.00;99.90
20349;DHT22;10332;50.208;18.988;2024-02-04T08:34:47;10.40;99.90
20349;DHT22;10332;50.208;18.988;2024-02-04T08:37:15;10.50;1.00
20349;DHT22;10332;50.208;18.988;2024-02-04T08:39:42;10.60;1.00
20349;DHT22;10332;50.208;18.988;2024-02-04T08:42:10;10.80;1.00
20349;DHT22;10332;50.208;18.988;2024-02-04T08:44:37;11.30;99.90
20349;DHT22;10332;50.208;18.988;2024-02-04T08:47:06;11.20;99.90
20349;DHT22;10332;50.208;18.988;2024-02-04T08:49:37;10.70;99.90
20349;DHT22;10332;50.208;18.988;2024-02-04T08:52:05;10.20;1.00
20349;DHT22;10332;50.208;18.988;2024-02-04T08:54:32;9.80;99.90
20349;DHT22;10332;50.208;18.988;2024-02-04T08:57:00;9.60;1.00
20349;DHT22;10332;50.208;18.988;2024-02-04T08:59:27;9.50;1.00
20349;DHT22;10332;50.208;18.988;2024-02-04T09:01:55;9.40;99.90
20349;DHT22;10332;50.208;18.988;2024-02-04T09:04:22;9.60;99.90
20349;DHT22;10332;50.208;18.988;2024-02-04T09:06:50;11.40;24.50
20349;DHT22;10332;50.208;18.988;2024-02-04T09:09:17;13.90;1.00
20349;DHT22;10332;50.208;18.988;2024-02-04T09:11:45;15.00;99.90
20349;DHT22;10332;50.208;18.988;2024-02-04T09:14:12;14.20;99.90
20349;DHT22;10332;50.208;18.988;2024-02-04T09:16:39;13.60;99.90
20349;DHT22;10332;50.208;18.988;2024-02-04T09:19:07;13.20;99.90
20349;DHT22;10332;50.208;18.988;2024-02-04T09:21:35;12.40;1.00
20349;DHT22;10332;50.208;18.988;2024-02-04T09:24:02;11.80;1.00
20349;DHT22;10332;50.208;18.988;2024-02-04T09:26:30;11.50;1.00
20349;DHT22;10332;50.208;18.988;2024-02-04T09:28:57;11.40;17.20
20349;DHT22;10332;50.208;18.988;2024-02-04T09:31:25;11.10;99.90
20349;DHT22;10332;50.208;18.988;2024-02-04T09:33:52;10.80;99.90
20349;DHT22;10332;50.208;18.988;2024-02-04T09:36:20;10.50;1.00
20349;DHT22;10332;50.208;18.988;2024-02-04T09:38:50;10.30;17.40
20349;DHT22;10332;50.208;18.988;2024-02-04T09:41:17;10.00;99.90
20349;DHT22;10332;50.208;18.988;2024-02-04T09:43:45;9.90;1.00
20349;DHT22;10332;50.208;18.988;2024-02-04T09:46:13;9.70;1.00
20349;DHT22;10332;50.208;18.988;2024-02-04T09:48:41;9.80;1.00
20349;DHT22;10332;50.208;18.988;2024-02-04T09:51:11;9.80;1.00
20349;DHT22;10332;50.208;18.988;2024-02-04T09:53:43;9.80;1.00
20349;DHT22;10332;50.208;18.988;2024-02-04T09:56:12;9.70;99.90
20349;DHT22;10332;50.208;18.988;2024-02-04T09:58:41;9.70;99.90
20349;DHT22;10332;50.208;18.988;2024-02-04T10:01:10;9.90;99.90
20349;DHT22;10332;50.208;18.988;2024-02-04T10:03:38;10.00;9.80
20349;DHT22;10332;50.208;18.988;2024-02-04T10:06:06;10.30;1.00
20349;DHT22;10332;50.208;18.988;2024-02-04T10:08:35;10.30;1.00
20349;DHT22;10332;50.208;18.988;2024-02-04T10:11:04;10.10;1.00
20349;DHT22;10332;50.208;18.988;2024-02-04T10:13:45;10.10;1.00
20349;DHT22;10332;50.208;18.988;2024-02-04T10:16:17;10.40;1.00
20349;DHT22;10332;50.208;18.988;2024-02-04T10:18:45;10.70;99.90
20349;DHT22;10332;50.208;18.988;2024-02-04T10:21:17;10.80;30.30
20349;DHT22;10332;50.208;18.988;2024-02-04T10:23:48;10.70;1.00
20349;DHT22;10332;50.208;18.988;2024-02-04T10:26:17;10.70;1.00
20349;DHT22;10332;50.208;18.988;2024-02-04T10:28:45;10.80;1.00
20349;DHT22;10332;50.208;18.988;2024-02-04T10:31:14;10.70;1.00
20349;DHT22;10332;50.208;18.988;2024-02-04T10:33:41;10.60;1.00
20349;DHT22;10332;50.208;18.988;2024-02-04T10:36:09;10.80;1.00
20349;DHT22;10332;50.208;18.988;2024-02-04T10:38:36;11.30;99.90
20349;DHT22;10332;50.208;18.988;2024-02-04T10:41:04;11.80;1.00
20349;DHT22;10332;50.208;18.988;2024-02-04T10:43:34;12.30;1.00
20349;DHT22;10332;50.208;18.988;2024-02-04T10:46:18;12.40;1.00
20349;DHT22;10332;50.208;18.988;2024-02-04T10:48:52;12.40;1.00
20349;DHT22;10332;50.208;18.988;2024-02-04T10:51:24;12.30;1.00
20349;DHT22;10332;50.208;18.988;2024-02-04T10:53:54;12.50;1.00
20349;DHT22;10332;50.208;18.988;2024-02-04T10:56:30;12.90;1.00
20349;DHT22;10332;50.208;18.988;2024-02-04T10:58:59;12.90;1.00
20349;DHT22;10332;50.208;18.988;2024-02-04T11:01:30;12.50;1.00
20349;DHT22;10332;50.208;18.988;2024-02-04T11:03:59;11.90;1.00
20349;DHT22;10332;50.208;18.988;2024-02-04T11:06:28;11.60;1.00
20349;DHT22;10332;50.208;18.988;2024-02-04T11:08:57;11.40;1.00
20349;DHT22;10332;50.208;18.988;2024-02-04T11:11:25;11.20;1.00
20349;DHT22;10332;50.208;18.988;2024-02-04T11:13:56;11.00;86.30
20349;DHT22;10332;50.208;18.988;2024-02-04T11:27:41;11.00;99.90
20349;DHT22;10332;50.208;18.988;2024-02-04T11:30:08;10.90;1.00
20349;DHT22;10332;50.208;18.988;2024-02-04T11:32:37;10.80;1.00
20349;DHT22;10332;50.208;18.988;2024-02-04T11:35:04;10.70;1.00
20349;DHT22;10332;50.208;18.988;2024-02-04T11:37:36;10.60;1.00
20349;DHT22;10332;50.208;18.988;2024-02-04T11:40:03;10.40;99.90
20349;DHT22;10332;50.208;18.988;2024-02-04T11:42:34;10.20;1.00
20349;DHT22;10332;50.208;18.988;2024-02-04T11:45:08;10.10;1.00
20349;DHT22;10332;50.208;18.988;2024-02-04T11:47:37;10.00;99.90
20349;DHT22;10332;50.208;18.988;2024-02-04T11:50:05;9.80;1.00
20349;DHT22;10332;50.208;18.988;2024-02-04T11:52:33;9.70;1.00
20349;DHT22;10332;50.208;18.988;2024-02-04T11:55:01;9.60;1.00
20349;DHT22;10332;50.208;18.988;2024-02-04T11:57:29;9.40;1.00
20349;DHT22;10332;50.208;18.988;2024-02-04T11:59:56;9.30;1.00
20349;DHT22;10332;50.208;18.988;2024-02-04T12:02:24;9.30;1.00
20349;DHT22;10332;50.208;18.988;2024-02-04T12:04:52;9.30;1.00
20349;DHT22;10332;50.208;18.988;2024-02-04T12:07:20;9.50;1.00
20349;DHT22;10332;50.208;18.988;2024-02-04T12:09:48;9.80;1.00
20349;DHT22;10332;50.208;18.988;2024-02-04T12:12:16;10.00;1.00
20349;DHT22;10332;50.208;18.988;2024-02-04T12:14:45;10.00;99.90
20349;DHT22;10332;50.208;18.988;2024-02-04T12:17:13;10.10;99.90
20349;DHT22;10332;50.208;18.988;2024-02-04T12:19:40;10.00;1.00
20349;DHT22;10332;50.208;18.988;2024-02-04T12:22:11;9.80;1.00
20349;DHT22;10332;50.208;18.988;2024-02-04T12:24:38;9.70;99.90
20349;DHT22;10332;50.208;18.988;2024-02-04T12:27:06;9.50;1.00
20349;DHT22;10332;50.208;18.988;2024-02-04T12:29:34;9.40;1.00
20349;DHT22;10332;50.208;18.988;2024-02-04T12:32:03;9.30;1.00
20349;DHT22;10332;50.208;18.988;2024-02-04T12:34:31;9.20;1.00
20349;DHT22;10332;50.208;18.988;2024-02-04T12:37:02;9.30;1.00
20349;DHT22;10332;50.208;18.988;2024-02-04T12:39:29;9.30;1.00
20349;DHT22;10332;50.208;18.988;2024-02-04T12:42:00;9.40;1.00
20349;DHT22;10332;50.208;18.988;2024-02-04T12:44:27;9.30;1.00
20349;DHT22;10332;50.208;18.988;2024-02-04T12:46:55;9.30;1.00
20349;DHT22;10332;50.208;18.988;2024-02-04T12:49:22;9.40;1.00
20349;DHT22;10332;50.208;18.988;2024-02-04T12:51:50;9.60;1.00
20349;DHT22;10332;50.208;18.988;2024-02-04T12:54:23;9.70;1.00
20349;DHT22;10332;50.208;18.988;2024-02-04T12:56:52;9.80;1.00
20349;DHT22;10332;50.208;18.988;2024-02-04T12:59:30;9.80;1.00
20349;DHT22;10332;50.208;18.988;2024-02-04T13:02:02;9.70;1.00
20349;DHT22;10332;50.208;18.988;2024-02-04T13:04:36;9.70;1.00
20349;DHT22;10332;50.208;18.988;2024-02-04T13:07:09;9.50;1.00
20349;DHT22;10332;50.208;18.988;2024-02-04T13:09:37;9.40;1.00
20349;DHT22;10332;50.208;18.988;2024-02-04T13:12:06;9.30;1.00
20349;DHT22;10332;50.208;18.988;2024-02-04T13:14:38;9.30;1.00
20349;DHT22;10332;50.208;18.988;2024-02-04T13:17:06;9.20;1.00
20349;DHT22;10332;50.208;18.988;2024-02-04T13:19:35;9.20;1.00
20349;DHT22;10332;50.208;18.988;2024-02-04T13:22:06;9.20;1.00
20349;DHT22;10332;50.208;18.988;2024-02-04T13:24:34;9.30;1.00
20349;DHT22;10332;50.208;18.988;2024-02-04T13:27:02;9.40;1.00
20349;DHT22;10332;50.208;18.988;2024-02-04T13:29:35;9.30;1.00
20349;DHT22;10332;50.208;18.988;2024-02-04T13:32:04;9.30;1.00
20349;DHT22;10332;50.208;18.988;2024-02-04T13:34:32;9.10;1.00
20349;DHT22;10332;50.208;18.988;2024-02-04T13:36:59;9.00;1.00
20349;DHT22;10332;50.208;18.988;2024-02-04T13:39:27;8.90;1.00
20349;DHT22;10332;50.208;18.988;2024-02-04T13:41:55;8.90;1.00
20349;DHT22;10332;50.208;18.988;2024-02-04T13:44:22;8.90;1.00
20349;DHT22;10332;50.208;18.988;2024-02-04T13:46:49;8.90;1.00
20349;DHT22;10332;50.208;18.988;2024-02-04T13:49:17;9.00;1.00
20349;DHT22;10332;50.208;18.988;2024-02-04T13:51:44;9.10;1.00
20349;DHT22;10332;50.208;18.988;2024-02-04T13:54:12;9.10;1.00
20349;DHT22;10332;50.208;18.988;2024-02-04T13:56:45;9.20;1.00
20349;DHT22;10332;50.208;18.988;2024-02-04T13:59:13;9.10;1.00
20349;DHT22;10332;50.208;18.988;2024-02-04T14:01:41;9.00;1.00
20349;DHT22;10332;50.208;18.988;2024-02-04T14:04:08;9.00;1.00
20349;DHT22;10332;50.208;18.988;2024-02-04T14:06:36;8.90;1.00
20349;DHT22;10332;50.208;18.988;2024-02-04T14:09:03;8.90;1.00
20349;DHT22;10332;50.208;18.988;2024-02-04T14:11:32;8.90;1.00
20349;DHT22;10332;50.208;18.988;2024-02-04T14:13:59;8.90;1.00
20349;DHT22;10332;50.208;18.988;2024-02-04T14:16:27;8.80;1.00
20349;DHT22;10332;50.208;18.988;2024-02-04T14:18:54;8.70;1.00
20349;DHT22;10332;50.208;18.988;2024-02-04T14:21:27;8.80;1.00
20349;DHT22;10332;50.208;18.988;2024-02-04T14:23:54;8.80;1.00
20349;DHT22;10332;50.208;18.988;2024-02-04T14:26:22;8.80;1.00
20349;DHT22;10332;50.208;18.988;2024-02-04T14:28:49;8.80;1.00
20349;DHT22;10332;50.208;18.988;2024-02-04T14:31:16;8.80;1.00
20349;DHT22;10332;50.208;18.988;2024-02-04T14:33:44;8.90;1.00
20349;DHT22;10332;50.208;18.988;2024-02-04T14:36:12;8.90;1.00
20349;DHT22;10332;50.208;18.988;2024-02-04T14:38:39;8.90;1.00
20349;DHT22;10332;50.208;18.988;2024-02-04T14:41:07;8.90;1.00
20349;DHT22;10332;50.208;18.988;2024-02-04T14:43:34;8.90;1.00
20349;DHT22;10332;50.208;18.988;2024-02-04T14:46:02;8.80;1.00
20349;DHT22;10332;50.208;18.988;2024-02-04T14:48:29;8.80;1.00
20349;DHT22;10332;50.208;18.988;2024-02-04T14:50:57;8.80;1.00
20349;DHT22;10332;50.208;18.988;2024-02-04T14:53:25;8.70;1.00
20349;DHT22;10332;50.208;18.988;2024-02-04T14:55:53;8.70;1.00
20349;DHT22;10332;50.208;18.988;2024-02-04T14:58:21;8.70;1.00
20349;DHT22;10332;50.208;18.988;2024-02-04T15:00:49;8.70;1.00
20349;DHT22;10332;50.208;18.988;2024-02-04T15:03:16;8.70;1.00
20349;DHT22;10332;50.208;18.988;2024-02-04T15:05:44;8.70;1.00
20349;DHT22;10332;50.208;18.988;2024-02-04T15:08:11;8.60;1.00
20349;DHT22;10332;50.208;18.988;2024-02-04T15:10:38;8.60;1.00
20349;DHT22;10332;50.208;18.988;2024-02-04T15:13:06;8.60;1.00
20349;DHT22;10332;50.208;18.988;2024-02-04T15:15:34;8.60;4.70
20349;DHT22;10332;50.208;18.988;2024-02-04T15:18:01;8.50;11.70
20349;DHT22;10332;50.208;18.988;2024-02-04T15:20:29;8.50;14.80
20349;DHT22;10332;50.208;18.988;2024-02-04T15:22:58;8.50;19.70
20349;DHT22;10332;50.208;18.988;2024-02-04T15:25:28;8.50;26.40
20349;DHT22;10332;50.208;18.988;2024-02-04T15:27:56;8.50;32.80
20349;DHT22;10332;50.208;18.988;2024-02-04T15:30:24;8.50;36.90
20349;DHT22;10332;50.208;18.988;2024-02-04T15:32:51;8.40;45.40
20349;DHT22;10332;50.208;18.988;2024-02-04T15:35:22;8.40;53.30
20349;DHT22;10332;50.208;18.988;2024-02-04T15:37:49;8.40;55.40
20349;DHT22;10332;50.208;18.988;2024-02-04T15:40:17;8.50;59.10
20349;DHT22;10332;50.208;18.988;2024-02-04T15:42:46;8.50;66.40
20349;DHT22;10332;50.208;18.988;2024-02-04T15:45:13;8.40;69.30
20349;DHT22;10332;50.208;18.988;2024-02-04T15:47:49;8.40;71.60
20349;DHT22;10332;50.208;18.988;2024-02-04T15:50:19;8.40;75.60
20349;DHT22;10332;50.208;18.988;2024-02-04T15:52:47;8.40;84.30
20349;DHT22;10332;50.208;18.988;2024-02-04T15:55:16;8.40;91.90
20349;DHT22;10332;50.208;18.988;2024-02-04T15:57:49;8.40;90.80